createdAt,value
2022-12-03T00:02:16.565Z,12.65
2022-12-03T00:04:43.684Z,11.88
2022-12-03T00:07:10.704Z,12.35
2022-12-03T00:09:37.672Z,12.57
2022-12-03T00:12:04.839Z,10.93
2022-12-03T00:14:31.853Z,13.38
2022-12-03T00:16:58.969Z,11.02
2022-12-03T00:19:26.145Z,12.98
2022-12-03T00:21:53.123Z,12.07
2022-12-03T00:24:20.078Z,11.77
2022-12-03T00:26:47.186Z,12.27
2022-12-03T00:29:14.434Z,13.48
2022-12-03T00:31:42.278Z,11.25
2022-12-03T00:34:09.374Z,10.88
2022-12-03T00:36:36.369Z,11.13
2022-12-03T00:39:03.730Z,11.02
2022-12-03T00:41:30.724Z,12.88
2022-12-03T00:43:57.831Z,10.80
2022-12-03T00:46:25.561Z,12.27
2022-12-03T00:48:53.272Z,11.85
2022-12-03T00:51:20.261Z,11.43
2022-12-03T00:53:47.293Z,11.65
2022-12-03T00:56:14.282Z,10.38
2022-12-03T00:58:41.356Z,11.43
2022-12-03T01:01:08.392Z,11.32
2022-12-03T01:03:35.532Z,10.00
2022-12-03T01:06:02.495Z,12.52
2022-12-03T01:08:29.801Z,10.93
2022-12-03T01:10:56.758Z,13.13
2022-12-03T01:13:23.717Z,11.43
2022-12-03T01:15:51.269Z,12.00
2022-12-03T01:18:18.351Z,13.25
2022-12-03T01:20:45.403Z,11.98
2022-12-03T01:23:13.386Z,10.65
2022-12-03T01:25:40.380Z,11.27
2022-12-03T01:28:07.341Z,10.10
2022-12-03T01:30:54.363Z,11.45
2022-12-03T01:33:21.467Z,10.85
2022-12-03T01:35:48.424Z,11.55
2022-12-03T01:38:15.403Z,11.98
2022-12-03T01:40:42.421Z,9.82
2022-12-03T01:43:09.448Z,11.45
2022-12-03T01:45:36.504Z,11.05
2022-12-03T01:48:03.590Z,12.13
2022-12-03T01:50:33.315Z,12.60
2022-12-03T01:53:02.591Z,11.13
2022-12-03T01:55:30.046Z,11.80
2022-12-03T01:58:02.207Z,11.13
2022-12-03T02:00:30.553Z,12.10
2022-12-03T02:03:01.186Z,13.15
2022-12-03T02:05:33.294Z,12.07
2022-12-03T02:08:02.556Z,13.70
2022-12-03T02:10:36.240Z,12.57
2022-12-03T02:13:06.658Z,11.82
2022-12-03T02:15:34.618Z,11.50
2022-12-03T02:18:02.127Z,11.65
2022-12-03T02:20:33.644Z,10.00
2022-12-03T02:23:14.218Z,10.13
2022-12-03T02:25:41.295Z,7.88
2022-12-03T02:28:09.798Z,10.55
2022-12-03T02:30:37.142Z,10.32
2022-12-03T02:33:04.390Z,9.30
2022-12-03T02:35:34.919Z,9.68
2022-12-03T02:38:17.438Z,10.10
2022-12-03T02:40:47.246Z,10.45
2022-12-03T02:43:16.872Z,9.02
2022-12-03T02:45:51.131Z,10.05
2022-12-03T02:48:21.334Z,10.25
2022-12-03T02:50:54.710Z,10.68
2022-12-03T02:53:28.793Z,11.05
2022-12-03T02:55:57.561Z,8.40
2022-12-03T02:58:26.164Z,10.55
2022-12-03T03:00:54.134Z,8.32
2022-12-03T03:03:22.473Z,10.60
2022-12-03T03:05:50.793Z,9.00
2022-12-03T03:08:18.873Z,9.57
2022-12-03T03:10:47.521Z,10.35
2022-12-03T03:13:17.926Z,9.45
2022-12-03T03:15:45.539Z,9.93
2022-12-03T03:18:14.163Z,10.00
2022-12-03T03:20:41.809Z,9.50
2022-12-03T03:23:11.647Z,10.55
2022-12-03T03:25:40.823Z,9.18
2022-12-03T03:28:08.318Z,8.45
2022-12-03T03:30:39.029Z,9.93
2022-12-03T03:33:06.608Z,8.75
2022-12-03T03:35:33.696Z,8.50
2022-12-03T03:38:00.961Z,8.75
2022-12-03T03:40:28.655Z,8.68
2022-12-03T03:42:58.305Z,9.70
2022-12-03T03:45:29.291Z,10.15
2022-12-03T03:47:59.225Z,9.00
2022-12-03T03:50:29.484Z,6.68
2022-12-03T03:52:57.749Z,6.00
2022-12-03T03:55:25.323Z,7.75
2022-12-03T03:57:52.347Z,4.60
2022-12-03T04:00:19.768Z,6.90
2022-12-03T04:02:47.057Z,8.45
2022-12-03T04:05:18.219Z,5.85
2022-12-03T04:07:45.423Z,6.85
2022-12-03T04:10:31.802Z,7.45
2022-12-03T04:12:59.987Z,8.60
2022-12-03T04:15:27.154Z,8.75
2022-12-03T04:18:12.545Z,6.03
2022-12-03T04:20:41.925Z,7.95
2022-12-03T04:23:09.365Z,6.38
2022-12-03T04:25:54.725Z,8.73
2022-12-03T04:28:40.258Z,5.78
2022-12-03T04:31:26.037Z,5.60
2022-12-03T04:34:11.972Z,5.95
2022-12-03T04:36:39.375Z,8.18
2022-12-03T04:39:06.531Z,8.40
2022-12-03T04:41:33.550Z,6.85
2022-12-03T04:44:19.202Z,7.05
2022-12-03T04:46:46.239Z,8.68
2022-12-03T04:49:13.281Z,6.43
2022-12-03T04:51:40.271Z,7.07
2022-12-03T04:54:07.315Z,7.95
2022-12-03T04:56:34.371Z,8.07
2022-12-03T04:59:01.546Z,7.10
2022-12-03T05:01:28.719Z,8.07
2022-12-03T05:03:55.838Z,7.63
2022-12-03T05:06:23.404Z,7.95
2022-12-03T05:08:50.473Z,6.72
2022-12-03T05:11:17.453Z,8.50
2022-12-03T05:13:44.481Z,8.23
2022-12-03T05:16:11.511Z,6.70
2022-12-03T05:18:38.748Z,7.25
2022-12-03T05:21:05.915Z,6.47
2022-12-03T05:23:32.919Z,8.27
2022-12-03T05:25:59.929Z,7.80
2022-12-03T05:28:26.980Z,5.10
2022-12-03T05:30:54.055Z,7.97
2022-12-03T05:33:21.626Z,7.85
2022-12-03T05:35:48.706Z,8.45
2022-12-03T05:38:15.926Z,8.82
2022-12-03T05:40:42.933Z,7.57
2022-12-03T05:43:09.970Z,8.18
2022-12-03T05:45:39.248Z,6.32
2022-12-03T05:48:08.476Z,8.25
2022-12-03T05:50:37.651Z,9.88
2022-12-03T05:53:18.679Z,6.78
2022-12-03T05:55:45.759Z,6.95
2022-12-03T05:58:12.826Z,9.27
2022-12-03T06:00:42.845Z,7.40
2022-12-03T06:03:11.097Z,7.65
2022-12-03T06:05:38.465Z,8.73
2022-12-03T06:08:05.565Z,7.13
2022-12-03T06:10:32.741Z,6.80
2022-12-03T06:12:59.815Z,7.55
2022-12-03T06:15:26.855Z,7.43
2022-12-03T06:17:53.790Z,6.50
2022-12-03T06:20:21.556Z,6.72
2022-12-03T06:22:49.995Z,9.13
2022-12-03T06:25:17.690Z,7.32
2022-12-03T06:27:45.417Z,9.23
2022-12-03T06:30:14.713Z,8.57
2022-12-03T06:32:41.851Z,8.27
2022-12-03T06:35:09.563Z,7.88
2022-12-03T06:37:36.563Z,8.07
2022-12-03T06:40:04.184Z,8.10
2022-12-03T06:42:31.292Z,7.63
2022-12-03T06:44:58.360Z,8.88
2022-12-03T06:47:25.423Z,8.15
2022-12-03T06:49:52.481Z,8.15
2022-12-03T06:52:19.563Z,8.43
2022-12-03T06:54:46.635Z,8.10
2022-12-03T06:57:13.719Z,8.13
2022-12-03T06:59:40.855Z,11.45
2022-12-03T07:02:07.902Z,8.27
2022-12-03T07:04:35.070Z,8.10
2022-12-03T07:07:02.080Z,7.45
2022-12-03T07:09:29.100Z,7.15
2022-12-03T07:11:56.298Z,7.45
2022-12-03T07:14:23.335Z,8.55
2022-12-03T07:16:50.402Z,7.88
2022-12-03T07:19:17.814Z,8.32
2022-12-03T07:21:44.991Z,7.72
2022-12-03T07:24:12.380Z,8.02
2022-12-03T07:26:39.483Z,8.07
2022-12-03T07:29:06.631Z,7.32
2022-12-03T07:31:33.717Z,7.72
2022-12-03T07:34:01.127Z,7.57
2022-12-03T07:36:28.141Z,8.13
2022-12-03T07:38:55.136Z,8.00
2022-12-03T07:41:22.206Z,8.68
2022-12-03T07:43:49.204Z,9.93
2022-12-03T07:46:16.388Z,11.23
2022-12-03T07:48:43.645Z,8.05
2022-12-03T07:51:15.313Z,8.70
2022-12-03T07:53:42.936Z,8.65
2022-12-03T07:56:10.094Z,9.35
2022-12-03T07:58:37.281Z,7.70
2022-12-03T08:01:04.335Z,8.88
2022-12-03T08:03:31.426Z,9.45
2022-12-03T08:05:58.510Z,8.00
2022-12-03T08:08:25.575Z,7.97
2022-12-03T08:10:52.803Z,7.88
2022-12-03T08:13:20.203Z,10.30
2022-12-03T08:15:47.494Z,8.77
2022-12-03T08:18:18.211Z,7.60
2022-12-03T08:20:48.273Z,9.48
2022-12-03T08:23:24.853Z,8.73
2022-12-03T08:25:53.195Z,8.05
2022-12-03T08:28:28.737Z,9.10
2022-12-03T08:31:03.553Z,7.65
2022-12-03T08:33:35.464Z,8.50
2022-12-03T08:36:16.756Z,8.40
2022-12-03T08:38:51.525Z,7.90
2022-12-03T08:41:39.141Z,8.13
2022-12-03T08:44:28.230Z,8.18
2022-12-03T08:47:14.024Z,9.07
2022-12-03T08:49:41.417Z,7.53
2022-12-03T08:52:20.905Z,8.10
2022-12-03T08:54:53.966Z,8.98
2022-12-03T08:57:34.708Z,8.40
2022-12-03T09:00:18.726Z,6.60
2022-12-03T09:02:49.653Z,8.85
2022-12-03T09:05:20.973Z,8.07
2022-12-03T09:07:48.079Z,9.32
2022-12-03T09:10:15.615Z,8.38
2022-12-03T09:12:42.658Z,9.65
2022-12-03T09:15:10.228Z,9.35
2022-12-03T09:17:37.571Z,8.75
2022-12-03T09:20:06.348Z,8.38
2022-12-03T09:22:33.714Z,9.43
2022-12-03T09:25:00.848Z,8.00
2022-12-03T09:27:28.332Z,9.55
2022-12-03T09:29:55.361Z,9.77
2022-12-03T09:32:22.521Z,9.30
2022-12-03T09:34:49.669Z,8.93
2022-12-03T09:37:16.666Z,9.07
2022-12-03T09:39:43.786Z,8.00
2022-12-03T09:42:11.552Z,7.85
2022-12-03T09:44:38.845Z,10.40
2022-12-03T09:47:06.939Z,9.48
2022-12-03T09:49:37.343Z,8.48
2022-12-03T09:52:06.020Z,7.90
2022-12-03T09:54:34.458Z,8.80
2022-12-03T09:57:04.299Z,8.90
2022-12-03T10:02:03.772Z,8.32
2022-12-03T10:04:30.973Z,7.40
2022-12-03T10:06:59.091Z,8.15
2022-12-03T10:09:29.231Z,9.85
2022-12-03T10:11:59.056Z,9.93
2022-12-03T10:14:27.736Z,11.18
2022-12-03T10:16:55.158Z,9.13
2022-12-03T10:19:26.178Z,9.73
2022-12-03T10:21:53.910Z,9.38
2022-12-03T10:24:32.684Z,9.35
2022-12-03T10:27:19.687Z,8.48
2022-12-03T10:29:58.241Z,9.52
2022-12-03T10:32:40.533Z,9.73
2022-12-03T10:35:15.795Z,9.13
2022-12-03T10:38:03.990Z,8.77
2022-12-03T10:40:36.136Z,9.27
2022-12-03T10:43:19.137Z,8.55
2022-12-03T10:46:18.069Z,10.43
2022-12-03T10:48:45.386Z,10.38
2022-12-03T10:51:21.944Z,9.43
2022-12-03T10:53:50.942Z,10.05
2022-12-03T10:56:26.438Z,10.15
2022-12-03T10:58:54.203Z,9.63
2022-12-03T11:01:26.370Z,8.27
2022-12-03T11:03:56.888Z,9.70
2022-12-03T11:06:24.225Z,8.05
2022-12-03T11:08:58.483Z,9.30
2022-12-03T11:11:27.829Z,8.80
2022-12-03T11:14:11.467Z,9.88
2022-12-03T11:16:41.498Z,9.15
2022-12-03T11:19:39.204Z,8.70
2022-12-03T11:22:07.419Z,9.68
2022-12-03T11:24:41.471Z,10.52
2022-12-03T11:27:11.842Z,9.00
2022-12-03T11:29:48.120Z,8.10
2022-12-03T11:32:43.021Z,8.95
2022-12-03T11:35:15.638Z,9.73
2022-12-03T11:37:43.101Z,10.20
2022-12-03T11:40:18.899Z,10.13
2022-12-03T11:47:47.152Z,8.48
2022-12-03T11:50:22.911Z,9.38
2022-12-03T11:55:24.976Z,7.82
2022-12-03T11:57:58.856Z,9.95
2022-12-03T12:00:26.315Z,9.93
2022-12-03T12:02:55.264Z,10.13
2022-12-03T12:05:35.705Z,8.45
2022-12-03T12:08:03.478Z,9.30
2022-12-03T12:10:47.498Z,12.15
2022-12-03T12:13:30.512Z,11.27
2022-12-03T12:16:02.617Z,10.02
2022-12-03T12:18:47.251Z,9.50
2022-12-03T12:21:47.851Z,8.50
2022-12-03T12:24:47.635Z,9.18
2022-12-03T12:27:14.826Z,10.68
2022-12-03T12:29:43.758Z,9.43
2022-12-03T12:32:10.842Z,9.07
2022-12-03T12:34:39.994Z,8.48
2022-12-03T12:37:32.794Z,10.10
2022-12-03T12:40:02.581Z,8.82
2022-12-03T12:42:34.398Z,9.82
2022-12-03T12:45:21.862Z,9.40
2022-12-03T12:48:07.476Z,9.43
2022-12-03T12:50:34.571Z,9.00
2022-12-03T12:53:25.226Z,7.78
2022-12-03T12:56:15.313Z,9.35
2022-12-03T12:58:43.340Z,10.07
2022-12-03T13:01:20.920Z,9.00
2022-12-03T13:03:52.288Z,8.93
2022-12-03T13:06:24.262Z,8.80
2022-12-03T13:08:52.233Z,9.30
2022-12-03T13:11:37.193Z,10.10
2022-12-03T13:14:22.685Z,8.90
2022-12-03T13:16:52.328Z,9.98
2022-12-03T13:19:24.065Z,10.50
2022-12-03T13:22:01.951Z,9.93
2022-12-03T13:24:45.503Z,9.75
2022-12-03T13:27:18.445Z,9.57
2022-12-03T13:30:15.967Z,9.20
2022-12-03T13:32:43.893Z,8.98
2022-12-03T13:35:17.584Z,10.43
2022-12-03T13:37:45.234Z,9.65
2022-12-03T13:40:29.011Z,10.32
2022-12-03T13:42:56.360Z,10.32
2022-12-03T13:45:26.495Z,10.80
2022-12-03T13:50:34.319Z,10.77
2022-12-03T13:53:24.260Z,10.68
2022-12-03T13:56:30.485Z,9.85
2022-12-03T13:59:00.474Z,9.25
2022-12-03T14:03:55.491Z,10.02
2022-12-03T14:06:23.584Z,10.70
2022-12-03T14:08:51.598Z,12.40
2022-12-03T14:11:39.052Z,10.80
2022-12-03T14:14:06.046Z,9.32
2022-12-03T14:16:33.284Z,8.50
2022-12-03T14:19:00.398Z,10.68
2022-12-03T14:21:27.519Z,7.50
2022-12-03T14:23:54.598Z,8.30
2022-12-03T14:26:21.561Z,9.05
2022-12-03T14:28:48.630Z,9.50
2022-12-03T14:31:15.798Z,8.23
2022-12-03T14:33:43.253Z,9.68
2022-12-03T14:36:10.400Z,9.27
2022-12-03T14:38:37.398Z,9.55
2022-12-03T14:41:04.558Z,8.80
2022-12-03T14:43:32.056Z,9.05
2022-12-03T14:45:59.541Z,9.27
2022-12-03T14:48:28.225Z,7.32
2022-12-03T14:50:55.262Z,11.63
2022-12-03T14:53:27.044Z,11.07
2022-12-03T14:55:56.038Z,10.05
2022-12-03T14:58:27.100Z,6.07
2022-12-03T15:00:54.260Z,8.07
2022-12-03T15:03:22.642Z,10.20
2022-12-03T15:05:49.658Z,10.63
2022-12-03T15:08:16.718Z,9.35
2022-12-03T15:10:43.821Z,10.63
2022-12-03T15:13:10.859Z,9.40
2022-12-03T15:15:37.807Z,10.13
2022-12-03T15:18:05.038Z,9.57
2022-12-03T15:20:33.341Z,9.57
2022-12-03T15:23:00.351Z,9.60
2022-12-03T15:25:27.568Z,9.52
2022-12-03T15:27:54.605Z,12.15
2022-12-03T15:30:21.702Z,8.85
2022-12-03T15:32:48.706Z,12.75
2022-12-03T15:35:18.637Z,9.73
2022-12-03T15:37:45.948Z,9.85
2022-12-03T15:40:13.476Z,9.48
2022-12-03T15:42:40.517Z,9.40
2022-12-03T15:45:12.055Z,10.73
2022-12-03T15:47:42.081Z,9.85
2022-12-03T15:50:09.411Z,9.68
2022-12-03T15:52:36.570Z,9.93
2022-12-03T15:55:03.735Z,9.98
2022-12-03T15:57:31.328Z,9.35
2022-12-03T15:59:58.378Z,10.88
2022-12-03T16:02:25.521Z,11.38
2022-12-03T16:04:52.507Z,11.85
2022-12-03T16:07:19.580Z,12.75
2022-12-03T16:09:46.526Z,11.48
2022-12-03T16:12:13.514Z,11.70
2022-12-03T16:14:40.565Z,12.80
2022-12-03T16:17:07.641Z,11.63
2022-12-03T16:19:35.040Z,13.05
2022-12-03T16:22:02.309Z,8.50
2022-12-03T16:24:29.396Z,8.98
2022-12-03T16:26:56.374Z,8.20
2022-12-03T16:29:23.612Z,7.38
2022-12-03T16:31:51.292Z,6.72
2022-12-03T16:34:18.282Z,6.57
2022-12-03T16:36:45.867Z,7.90
2022-12-03T16:39:13.226Z,7.38
2022-12-03T16:41:40.340Z,6.38
2022-12-03T16:44:07.309Z,6.80
2022-12-03T16:46:34.521Z,7.30
2022-12-03T16:49:01.683Z,7.20
2022-12-03T16:51:30.381Z,6.72
2022-12-03T16:53:57.453Z,4.90
2022-12-03T16:56:24.447Z,5.20
2022-12-03T16:58:51.485Z,6.20
2022-12-03T17:01:18.759Z,5.53
2022-12-03T17:03:45.789Z,4.15
2022-12-03T17:06:12.756Z,5.35
2022-12-03T17:08:43.102Z,5.90
2022-12-03T17:11:12.926Z,4.78
2022-12-03T17:13:39.979Z,5.00
2022-12-03T17:16:07.087Z,4.85
2022-12-03T17:18:34.208Z,5.90
2022-12-03T17:21:01.346Z,5.63
2022-12-03T17:23:28.411Z,4.47
2022-12-03T17:25:55.555Z,4.63
2022-12-03T17:28:22.618Z,5.03
2022-12-03T17:30:49.822Z,5.47
2022-12-03T17:33:16.866Z,4.43
2022-12-03T17:35:45.633Z,5.00
2022-12-03T17:38:12.733Z,4.85
2022-12-03T17:40:39.975Z,4.43
2022-12-03T17:43:06.989Z,5.28
2022-12-03T17:45:34.063Z,4.72
2022-12-03T17:48:01.143Z,5.35
2022-12-03T17:50:28.247Z,4.60
2022-12-03T17:52:55.272Z,5.55
2022-12-03T17:55:31.312Z,6.15
2022-12-03T17:58:04.604Z,5.93
2022-12-03T18:00:33.206Z,4.50
2022-12-03T18:03:00.189Z,3.33
2022-12-03T18:05:27.190Z,5.20
2022-12-03T18:07:54.240Z,4.43
2022-12-03T18:10:21.567Z,4.68
2022-12-03T18:12:48.981Z,5.47
2022-12-03T18:15:16.045Z,9.38
2022-12-03T18:17:43.036Z,5.30
2022-12-03T18:20:10.265Z,4.40
2022-12-03T18:22:37.577Z,4.65
2022-12-03T18:25:05.721Z,5.13
2022-12-03T18:27:32.806Z,3.88
2022-12-03T18:30:03.108Z,5.15
2022-12-03T18:32:31.045Z,5.50
2022-12-03T18:34:58.431Z,6.38
2022-12-03T18:37:28.853Z,5.40
2022-12-03T18:39:57.540Z,4.63
2022-12-03T18:42:25.276Z,5.07
2022-12-03T18:44:54.453Z,5.00
2022-12-03T18:47:24.412Z,6.03
2022-12-03T18:49:51.726Z,5.70
2022-12-03T18:52:22.267Z,5.53
2022-12-03T18:54:49.362Z,5.30
2022-12-03T18:57:17.496Z,5.53
2022-12-03T18:59:44.636Z,6.05
2022-12-03T19:02:38.633Z,4.90
2022-12-03T19:05:04.139Z,6.32
2022-12-03T19:07:31.215Z,5.70
2022-12-03T19:09:58.341Z,6.57
2022-12-03T19:12:25.375Z,6.00
2022-12-03T19:14:52.435Z,6.10
2022-12-03T19:17:19.543Z,5.75
2022-12-03T19:19:46.749Z,5.60
2022-12-03T19:22:13.732Z,5.85
2022-12-03T19:24:40.797Z,5.28
2022-12-03T19:27:07.762Z,6.25
2022-12-03T19:29:34.771Z,4.97
2022-12-03T19:32:01.975Z,5.88
2022-12-03T19:34:30.143Z,6.57
2022-12-03T19:36:57.249Z,6.35
2022-12-03T19:39:24.360Z,5.78
2022-12-03T19:41:51.392Z,6.30
2022-12-03T19:44:19.408Z,5.32
2022-12-03T19:46:46.461Z,6.13
2022-12-03T19:49:13.600Z,6.35
2022-12-03T19:51:40.625Z,6.55
2022-12-03T19:54:10.531Z,6.22
2022-12-03T19:59:05.168Z,6.22
2022-12-03T20:01:34.543Z,5.85
2022-12-03T20:04:03.357Z,6.60
2022-12-03T20:06:35.651Z,5.72
2022-12-03T20:09:07.397Z,6.78
2022-12-03T20:11:35.043Z,6.97
2022-12-03T20:14:05.336Z,6.75
2022-12-03T20:16:33.034Z,5.43
2022-12-03T20:19:02.899Z,7.63
2022-12-03T20:21:32.446Z,6.10
2022-12-03T20:23:59.642Z,6.20
2022-12-03T20:26:27.771Z,6.55
2022-12-03T20:28:55.970Z,6.05
2022-12-03T20:31:25.633Z,6.53
2022-12-03T20:33:57.054Z,6.65
2022-12-03T20:36:25.441Z,6.80
2022-12-03T20:38:58.159Z,6.00
2022-12-03T20:41:25.793Z,6.97
2022-12-03T20:43:53.897Z,6.25
2022-12-03T20:46:26.517Z,6.50
2022-12-03T20:48:54.326Z,6.43
2022-12-03T20:51:23.851Z,5.88
2022-12-03T20:53:51.125Z,6.15
2022-12-03T20:56:31.436Z,6.25
2022-12-03T20:59:07.436Z,7.53
2022-12-03T21:01:36.312Z,7.00
2022-12-03T21:04:05.019Z,6.90
2022-12-03T21:06:34.261Z,5.80
2022-12-03T21:09:01.619Z,5.47
2022-12-03T21:11:31.381Z,7.07
2022-12-03T21:13:59.544Z,7.05
2022-12-03T21:16:59.020Z,6.65
2022-12-03T21:19:18.709Z,10.15
2022-12-03T21:21:46.171Z,7.90
2022-12-03T21:24:13.778Z,6.88
2022-12-03T21:26:41.706Z,7.35
2022-12-03T21:29:08.947Z,6.75
2022-12-03T21:31:37.483Z,5.43
2022-12-03T21:34:05.222Z,6.55
2022-12-03T21:36:32.568Z,6.90
2022-12-03T21:38:59.745Z,8.63
2022-12-03T21:41:26.797Z,6.95
2022-12-03T21:43:54.110Z,7.22
2022-12-03T21:47:09.313Z,6.05
2022-12-03T21:49:08.246Z,6.47
2022-12-03T21:51:35.366Z,7.43
2022-12-03T21:54:02.541Z,6.63
2022-12-03T21:56:31.901Z,7.57
2022-12-03T21:58:59.181Z,5.70
2022-12-03T22:01:26.510Z,7.43
2022-12-03T22:03:53.635Z,6.68
2022-12-03T22:06:21.569Z,6.20
2022-12-03T22:08:49.066Z,6.68
2022-12-03T22:11:18.973Z,8.10
2022-12-03T22:16:17.077Z,7.20
2022-12-03T22:18:44.466Z,6.35
2022-12-03T22:21:17.012Z,7.40
2022-12-03T22:23:44.071Z,6.78
2022-12-03T22:26:13.540Z,7.10
2022-12-03T22:28:48.747Z,6.20
2022-12-03T22:31:17.599Z,6.50
2022-12-03T22:33:48.401Z,6.55
2022-12-03T22:36:20.882Z,5.78
2022-12-03T22:38:51.604Z,6.05
2022-12-03T22:41:19.355Z,7.07
2022-12-03T22:43:47.543Z,6.40
2022-12-03T22:46:15.080Z,6.68
2022-12-03T22:48:43.622Z,6.25
2022-12-03T22:51:20.082Z,7.10
2022-12-03T22:53:47.390Z,6.15
2022-12-03T22:56:14.681Z,6.07
2022-12-03T22:58:41.699Z,7.20
2022-12-03T23:01:09.016Z,6.20
2022-12-03T23:03:36.902Z,7.05
2022-12-03T23:06:11.016Z,6.55
2022-12-03T23:08:38.398Z,5.88
2022-12-03T23:11:05.843Z,5.97
2022-12-03T23:13:32.953Z,6.28
2022-12-03T23:16:00.063Z,6.68
2022-12-03T23:18:27.527Z,5.53
2022-12-03T23:20:57.070Z,6.38
2022-12-03T23:23:26.167Z,6.90
2022-12-03T23:26:05.491Z,7.68
2022-12-03T23:28:35.215Z,6.13
2022-12-03T23:31:03.342Z,6.80
2022-12-03T23:33:36.684Z,5.78
2022-12-03T23:36:08.055Z,7.05
2022-12-03T23:38:35.062Z,5.68
2022-12-03T23:41:06.684Z,5.90
2022-12-03T23:43:33.733Z,6.75
2022-12-03T23:46:09.878Z,6.80
2022-12-03T23:48:37.121Z,7.43
2022-12-03T23:51:13.487Z,6.63
2022-12-03T23:53:41.408Z,6.78
2022-12-03T23:56:11.383Z,7.43
2022-12-03T23:58:38.814Z,7.28
